sensor_id;sensor_type;location;lat;lon;timestamp;pressure;altitude;pressure_sealevel;temperature;humidity
74881;BME280;63427;49.654;6.596;2023-12-14T00:08:47;98710.48;;;11.75;43.60
74881;BME280;63427;49.654;6.596;2023-12-14T00:11:13;98711.36;;;12.00;43.09
74881;BME280;63427;49.654;6.596;2023-12-14T00:13:39;98712.90;;;11.86;43.37
74881;BME280;63427;49.654;6.596;2023-12-14T00:16:06;98711.79;;;11.71;43.66
74881;BME280;63427;49.654;6.596;2023-12-14T00:18:30;98713.29;;;11.68;43.65
74881;BME280;63427;49.654;6.596;2023-12-14T00:20:56;98723.13;;;11.65;43.85
74881;BME280;63427;49.654;6.596;2023-12-14T00:23:21;98721.13;;;11.57;44.15
74881;BME280;63427;49.654;6.596;2023-12-14T00:25:46;98725.82;;;11.66;43.96
74881;BME280;63427;49.654;6.596;2023-12-14T00:28:12;98728.85;;;11.97;43.81
74881;BME280;63427;49.654;6.596;2023-12-14T00:30:37;98732.59;;;11.68;43.82
74881;BME280;63427;49.654;6.596;2023-12-14T00:33:03;98736.33;;;11.74;43.65
74881;BME280;63427;49.654;6.596;2023-12-14T00:35:28;98734.44;;;11.55;43.99
74881;BME280;63427;49.654;6.596;2023-12-14T00:37:53;98739.58;;;11.63;43.96
74881;BME280;63427;49.654;6.596;2023-12-14T00:40:19;98738.28;;;11.65;43.96
74881;BME280;63427;49.654;6.596;2023-12-14T00:42:45;98744.58;;;11.72;43.96
74881;BME280;63427;49.654;6.596;2023-12-14T00:45:10;98746.20;;;11.85;44.02
74881;BME280;63427;49.654;6.596;2023-12-14T00:47:35;98752.58;;;11.67;44.25
74881;BME280;63427;49.654;6.596;2023-12-14T00:50:01;98756.84;;;11.67;44.18
74881;BME280;63427;49.654;6.596;2023-12-14T00:52:26;98764.21;;;11.70;44.09
74881;BME280;63427;49.654;6.596;2023-12-14T00:54:52;98762.23;;;11.67;44.28
74881;BME280;63427;49.654;6.596;2023-12-14T00:57:17;98766.11;;;11.76;44.04
74881;BME280;63427;49.654;6.596;2023-12-14T00:59:43;98778.36;;;11.90;44.12
74881;BME280;63427;49.654;6.596;2023-12-14T01:02:08;98784.37;;;11.79;43.90
74881;BME280;63427;49.654;6.596;2023-12-14T01:04:35;98787.20;;;11.59;44.22
74881;BME280;63427;49.654;6.596;2023-12-14T01:07:00;98791.07;;;11.59;44.40
74881;BME280;63427;49.654;6.596;2023-12-14T01:11:50;98799.55;;;11.98;43.91
74881;BME280;63427;49.654;6.596;2023-12-14T01:14:16;98807.33;;;11.71;43.99
74881;BME280;63427;49.654;6.596;2023-12-14T01:16:42;98812.65;;;11.70;44.10
74881;BME280;63427;49.654;6.596;2023-12-14T01:19:07;98821.29;;;11.70;43.92
74881;BME280;63427;49.654;6.596;2023-12-14T01:21:33;98828.11;;;11.74;43.73
74881;BME280;63427;49.654;6.596;2023-12-14T01:23:58;98834.30;;;11.75;43.77
74881;BME280;63427;49.654;6.596;2023-12-14T01:26:35;98839.03;;;11.71;43.88
74881;BME280;63427;49.654;6.596;2023-12-14T01:28:49;98842.91;;;11.62;44.01
74881;BME280;63427;49.654;6.596;2023-12-14T01:31:15;98844.67;;;11.67;43.80
74881;BME280;63427;49.654;6.596;2023-12-14T01:43:23;98865.98;;;11.85;42.80
74881;BME280;63427;49.654;6.596;2023-12-14T01:45:48;98870.42;;;11.87;43.50
74881;BME280;63427;49.654;6.596;2023-12-14T01:48:13;98874.61;;;11.71;44.13
74881;BME280;63427;49.654;6.596;2023-12-14T01:50:39;98877.60;;;12.07;43.84
74881;BME280;63427;49.654;6.596;2023-12-14T01:53:04;98884.18;;;11.51;44.26
74881;BME280;63427;49.654;6.596;2023-12-14T01:55:29;98895.17;;;11.48;44.63
74881;BME280;63427;49.654;6.596;2023-12-14T01:57:55;98903.06;;;11.56;44.34
74881;BME280;63427;49.654;6.596;2023-12-14T02:05:11;98912.36;;;11.89;43.71
74881;BME280;63427;49.654;6.596;2023-12-14T02:14:58;98942.44;;;11.88;43.67
74881;BME280;63427;49.654;6.596;2023-12-14T02:17:18;98941.27;;;11.90;43.46
74881;BME280;63427;49.654;6.596;2023-12-14T02:19:43;98939.74;;;11.97;43.36
74881;BME280;63427;49.654;6.596;2023-12-14T02:22:09;98942.55;;;11.84;43.61
74881;BME280;63427;49.654;6.596;2023-12-14T02:24:35;98945.59;;;11.68;43.61
74881;BME280;63427;49.654;6.596;2023-12-14T02:26:59;98951.34;;;11.70;43.50
74881;BME280;63427;49.654;6.596;2023-12-14T02:29:25;98953.74;;;11.57;43.82
74881;BME280;63427;49.654;6.596;2023-12-14T02:31:50;98957.84;;;11.50;43.77
74881;BME280;63427;49.654;6.596;2023-12-14T02:34:16;98958.83;;;11.73;43.96
74881;BME280;63427;49.654;6.596;2023-12-14T02:36:41;98959.32;;;11.40;44.02
74881;BME280;63427;49.654;6.596;2023-12-14T02:39:07;98959.95;;;11.42;43.98
74881;BME280;63427;49.654;6.596;2023-12-14T02:41:32;98963.22;;;11.58;43.86
74881;BME280;63427;49.654;6.596;2023-12-14T02:43:57;98963.84;;;12.00;44.09
74881;BME280;63427;49.654;6.596;2023-12-14T02:46:23;98966.88;;;11.73;44.09
74881;BME280;63427;49.654;6.596;2023-12-14T02:48:48;98977.96;;;11.35;44.41
74881;BME280;63427;49.654;6.596;2023-12-14T02:51:13;98983.53;;;11.41;44.47
74881;BME280;63427;49.654;6.596;2023-12-14T02:53:39;98983.28;;;11.68;44.40
74881;BME280;63427;49.654;6.596;2023-12-14T02:56:05;98982.89;;;11.46;44.21
74881;BME280;63427;49.654;6.596;2023-12-14T02:58:30;98988.78;;;11.42;44.23
74881;BME280;63427;49.654;6.596;2023-12-14T03:00:55;98997.59;;;11.42;44.44
74881;BME280;63427;49.654;6.596;2023-12-14T03:03:21;99001.86;;;11.43;44.34
74881;BME280;63427;49.654;6.596;2023-12-14T03:05:46;99005.64;;;11.38;44.22
74881;BME280;63427;49.654;6.596;2023-12-14T03:08:11;99005.80;;;11.26;44.46
74881;BME280;63427;49.654;6.596;2023-12-14T03:15:35;99010.51;;;11.65;44.34
74881;BME280;63427;49.654;6.596;2023-12-14T03:17:53;99016.01;;;11.46;43.80
74881;BME280;63427;49.654;6.596;2023-12-14T03:20:18;99022.92;;;11.50;43.71
74881;BME280;63427;49.654;6.596;2023-12-14T03:22:44;99028.09;;;11.42;43.68
74881;BME280;63427;49.654;6.596;2023-12-14T03:25:10;99027.20;;;11.29;43.77
74881;BME280;63427;49.654;6.596;2023-12-14T03:27:36;99030.52;;;11.71;43.24
74881;BME280;63427;49.654;6.596;2023-12-14T03:30:01;99034.37;;;11.35;43.35
74881;BME280;63427;49.654;6.596;2023-12-14T03:32:26;99038.77;;;11.43;43.43
74881;BME280;63427;49.654;6.596;2023-12-14T03:34:51;99041.22;;;11.61;43.23
74881;BME280;63427;49.654;6.596;2023-12-14T03:37:28;99053.00;;;11.67;43.90
74881;BME280;63427;49.654;6.596;2023-12-14T03:39:42;99053.26;;;11.18;43.84
74881;BME280;63427;49.654;6.596;2023-12-14T03:42:08;99061.72;;;11.38;43.77
74881;BME280;63427;49.654;6.596;2023-12-14T03:44:34;99061.27;;;11.29;43.77
74881;BME280;63427;49.654;6.596;2023-12-14T03:46:59;99066.69;;;11.60;43.42
74881;BME280;63427;49.654;6.596;2023-12-14T03:49:27;99069.37;;;11.42;43.55
74881;BME280;63427;49.654;6.596;2023-12-14T03:51:50;99073.58;;;11.39;43.31
74881;BME280;63427;49.654;6.596;2023-12-14T03:54:16;99083.03;;;11.27;43.62
74881;BME280;63427;49.654;6.596;2023-12-14T03:56:41;99087.11;;;10.98;43.73
74881;BME280;63427;49.654;6.596;2023-12-14T03:59:07;99088.57;;;11.11;43.56
74881;BME280;63427;49.654;6.596;2023-12-14T04:01:32;99087.02;;;11.05;43.47
74881;BME280;63427;49.654;6.596;2023-12-14T04:04:00;99093.59;;;11.00;43.35
74881;BME280;63427;49.654;6.596;2023-12-14T04:06:23;99100.53;;;10.94;43.47
74881;BME280;63427;49.654;6.596;2023-12-14T04:09:01;99105.74;;;10.82;43.60
74881;BME280;63427;49.654;6.596;2023-12-14T04:11:14;99108.83;;;10.77;43.67
74881;BME280;63427;49.654;6.596;2023-12-14T04:13:40;99112.50;;;10.85;43.40
74881;BME280;63427;49.654;6.596;2023-12-14T04:16:06;99120.36;;;10.79;43.70
74881;BME280;63427;49.654;6.596;2023-12-14T04:18:31;99125.27;;;10.19;43.58
74881;BME280;63427;49.654;6.596;2023-12-14T04:20:57;99126.44;;;10.78;43.54
74881;BME280;63427;49.654;6.596;2023-12-14T04:23:22;99129.92;;;10.69;43.47
74881;BME280;63427;49.654;6.596;2023-12-14T04:25:48;99134.72;;;10.86;43.94
74881;BME280;63427;49.654;6.596;2023-12-14T04:28:13;99136.78;;;10.55;44.09
74881;BME280;63427;49.654;6.596;2023-12-14T04:30:39;99139.55;;;10.80;43.95
74881;BME280;63427;49.654;6.596;2023-12-14T04:33:04;99143.62;;;10.97;44.02
74881;BME280;63427;49.654;6.596;2023-12-14T04:35:29;99146.05;;;10.64;44.22
74881;BME280;63427;49.654;6.596;2023-12-14T04:37:55;99152.63;;;10.58;44.41
74881;BME280;63427;49.654;6.596;2023-12-14T04:40:20;99154.88;;;10.78;44.26
74881;BME280;63427;49.654;6.596;2023-12-14T04:42:45;99161.56;;;10.62;44.11
74881;BME280;63427;49.654;6.596;2023-12-14T04:45:11;99164.66;;;10.65;43.79
74881;BME280;63427;49.654;6.596;2023-12-14T04:47:36;99164.58;;;10.90;43.62
74881;BME280;63427;49.654;6.596;2023-12-14T04:50:02;99169.10;;;10.63;43.65
74881;BME280;63427;49.654;6.596;2023-12-14T04:52:27;99173.36;;;10.69;43.33
74881;BME280;63427;49.654;6.596;2023-12-14T04:55:02;99180.95;;;10.96;43.71
74881;BME280;63427;49.654;6.596;2023-12-14T04:57:18;99190.13;;;10.73;43.79
74881;BME280;63427;49.654;6.596;2023-12-14T04:59:44;99192.58;;;10.76;43.72
74881;BME280;63427;49.654;6.596;2023-12-14T05:02:11;99192.71;;;10.68;44.20
74881;BME280;63427;49.654;6.596;2023-12-14T05:04:35;99195.73;;;10.65;43.65
74881;BME280;63427;49.654;6.596;2023-12-14T05:07:00;99200.33;;;10.71;43.96
74881;BME280;63427;49.654;6.596;2023-12-14T05:09:25;99203.72;;;10.92;43.89
74881;BME280;63427;49.654;6.596;2023-12-14T05:11:51;99208.94;;;10.67;43.87
74881;BME280;63427;49.654;6.596;2023-12-14T05:14:16;99213.91;;;10.70;43.76
74881;BME280;63427;49.654;6.596;2023-12-14T05:19:07;99226.49;;;10.82;43.43
74881;BME280;63427;49.654;6.596;2023-12-14T05:21:38;99229.63;;;10.93;43.69
74881;BME280;63427;49.654;6.596;2023-12-14T05:23:58;99230.64;;;10.59;43.83
74881;BME280;63427;49.654;6.596;2023-12-14T05:26:23;99231.57;;;10.55;43.95
74881;BME280;63427;49.654;6.596;2023-12-14T05:28:49;99241.35;;;10.82;43.69
74881;BME280;63427;49.654;6.596;2023-12-14T05:33:51;99253.82;;;10.52;43.91
74881;BME280;63427;49.654;6.596;2023-12-14T05:36:07;99256.97;;;10.48;43.95
74881;BME280;63427;49.654;6.596;2023-12-14T05:38:31;99258.31;;;10.87;43.44
74881;BME280;63427;49.654;6.596;2023-12-14T05:40:57;99263.69;;;10.91;43.57
74881;BME280;63427;49.654;6.596;2023-12-14T05:43:22;99266.07;;;10.55;43.51
74881;BME280;63427;49.654;6.596;2023-12-14T05:45:52;99271.82;;;10.54;43.41
74881;BME280;63427;49.654;6.596;2023-12-14T05:48:13;99274.35;;;10.42;43.96
74881;BME280;63427;49.654;6.596;2023-12-14T05:50:39;99281.44;;;10.53;43.89
74881;BME280;63427;49.654;6.596;2023-12-14T05:53:04;99286.49;;;10.32;43.92
74881;BME280;63427;49.654;6.596;2023-12-14T05:55:29;99288.02;;;10.24;44.08
74881;BME280;63427;49.654;6.596;2023-12-14T05:57:55;99291.37;;;10.53;43.80
74881;BME280;63427;49.654;6.596;2023-12-14T06:00:21;99299.14;;;10.51;43.85
74881;BME280;63427;49.654;6.596;2023-12-14T06:02:46;99301.86;;;10.37;43.75
74881;BME280;63427;49.654;6.596;2023-12-14T06:19:44;99332.40;;;10.81;43.20
74881;BME280;63427;49.654;6.596;2023-12-14T06:22:09;99336.26;;;10.45;43.03
74881;BME280;63427;49.654;6.596;2023-12-14T06:24:35;99339.93;;;10.35;43.27
74881;BME280;63427;49.654;6.596;2023-12-14T06:27:00;99341.25;;;10.44;43.49
74881;BME280;63427;49.654;6.596;2023-12-14T06:29:26;99346.46;;;10.46;43.49
74881;BME280;63427;49.654;6.596;2023-12-14T06:31:51;99349.39;;;10.55;44.00
74881;BME280;63427;49.654;6.596;2023-12-14T06:34:17;99354.22;;;10.30;44.17
74881;BME280;63427;49.654;6.596;2023-12-14T06:36:44;99359.10;;;10.62;44.13
74881;BME280;63427;49.654;6.596;2023-12-14T06:39:07;99367.03;;;10.50;44.61
74881;BME280;63427;49.654;6.596;2023-12-14T06:41:33;99374.36;;;10.59;44.26
74881;BME280;63427;49.654;6.596;2023-12-14T06:43:58;99386.23;;;10.29;44.65
74881;BME280;63427;49.654;6.596;2023-12-14T06:46:23;99391.84;;;10.72;44.49
74881;BME280;63427;49.654;6.596;2023-12-14T06:48:49;99398.69;;;10.17;44.55
74881;BME280;63427;49.654;6.596;2023-12-14T06:51:13;99408.23;;;10.16;44.59
74881;BME280;63427;49.654;6.596;2023-12-14T06:58:29;99428.23;;;10.53;43.76
74881;BME280;63427;49.654;6.596;2023-12-14T07:00:54;99434.70;;;10.42;44.32
74881;BME280;63427;49.654;6.596;2023-12-14T07:03:19;99440.08;;;10.81;44.56
74881;BME280;63427;49.654;6.596;2023-12-14T07:05:45;99445.65;;;10.74;44.19
74881;BME280;63427;49.654;6.596;2023-12-14T07:08:10;99449.20;;;10.71;44.11
74881;BME280;63427;49.654;6.596;2023-12-14T07:10:35;99453.32;;;10.64;44.10
74881;BME280;63427;49.654;6.596;2023-12-14T07:13:01;99455.86;;;10.68;43.76
74881;BME280;63427;49.654;6.596;2023-12-14T07:15:26;99461.19;;;10.40;43.90
74881;BME280;63427;49.654;6.596;2023-12-14T07:17:52;99470.61;;;10.73;43.74
74881;BME280;63427;49.654;6.596;2023-12-14T07:20:17;99480.15;;;10.42;43.90
74881;BME280;63427;49.654;6.596;2023-12-14T07:22:42;99487.09;;;10.66;43.77
74881;BME280;63427;49.654;6.596;2023-12-14T07:25:09;99490.84;;;10.80;43.49
74881;BME280;63427;49.654;6.596;2023-12-14T07:27:35;99498.22;;;10.85;43.56
74881;BME280;63427;49.654;6.596;2023-12-14T07:30:00;99502.01;;;10.97;43.78
74881;BME280;63427;49.654;6.596;2023-12-14T07:32:25;99504.13;;;10.75;43.48
74881;BME280;63427;49.654;6.596;2023-12-14T07:34:50;99507.45;;;10.93;43.83
74881;BME280;63427;49.654;6.596;2023-12-14T07:37:16;99514.46;;;10.69;43.86
74881;BME280;63427;49.654;6.596;2023-12-14T07:42:06;99517.38;;;10.73;44.05
74881;BME280;63427;49.654;6.596;2023-12-14T07:44:32;99518.68;;;10.52;44.03
74881;BME280;63427;49.654;6.596;2023-12-14T07:47:02;99523.74;;;10.89;43.89
74881;BME280;63427;49.654;6.596;2023-12-14T07:51:48;99533.10;;;10.65;43.87
74881;BME280;63427;49.654;6.596;2023-12-14T07:54:14;99543.20;;;10.56;43.63
74881;BME280;63427;49.654;6.596;2023-12-14T07:56:38;99550.33;;;10.60;43.93
74881;BME280;63427;49.654;6.596;2023-12-14T07:59:04;99555.54;;;10.67;43.94
74881;BME280;63427;49.654;6.596;2023-12-14T08:01:30;99560.99;;;10.79;44.21
74881;BME280;63427;49.654;6.596;2023-12-14T08:03:54;99569.20;;;11.03;44.40
74881;BME280;63427;49.654;6.596;2023-12-14T08:06:20;99572.19;;;10.65;43.99
74881;BME280;63427;49.654;6.596;2023-12-14T08:08:47;99576.87;;;10.95;43.63
74881;BME280;63427;49.654;6.596;2023-12-14T08:11:12;99578.73;;;10.89;43.68
74881;BME280;63427;49.654;6.596;2023-12-14T08:13:37;99584.05;;;10.60;43.78
74881;BME280;63427;49.654;6.596;2023-12-14T08:16:03;99585.70;;;10.75;43.82
74881;BME280;63427;49.654;6.596;2023-12-14T08:18:28;99584.99;;;10.75;43.80
74881;BME280;63427;49.654;6.596;2023-12-14T08:20:54;99587.42;;;10.73;43.92
74881;BME280;63427;49.654;6.596;2023-12-14T08:23:19;99591.01;;;10.88;43.89
74881;BME280;63427;49.654;6.596;2023-12-14T08:25:45;99596.54;;;10.82;44.19
74881;BME280;63427;49.654;6.596;2023-12-14T08:28:10;99599.45;;;11.14;43.63
74881;BME280;63427;49.654;6.596;2023-12-14T08:30:35;99606.02;;;11.11;44.13
74881;BME280;63427;49.654;6.596;2023-12-14T08:33:01;99615.51;;;10.35;44.45
74881;BME280;63427;49.654;6.596;2023-12-14T08:35:26;99621.06;;;10.75;44.24
74881;BME280;63427;49.654;6.596;2023-12-14T08:37:52;99626.33;;;10.74;44.41
74881;BME280;63427;49.654;6.596;2023-12-14T08:40:17;99633.62;;;10.80;44.29
74881;BME280;63427;49.654;6.596;2023-12-14T08:42:42;99637.16;;;11.08;44.41
74881;BME280;63427;49.654;6.596;2023-12-14T08:45:08;99642.64;;;10.48;44.13
74881;BME280;63427;49.654;6.596;2023-12-14T08:47:34;99645.29;;;10.98;43.93
74881;BME280;63427;49.654;6.596;2023-12-14T08:49:59;99647.05;;;11.18;43.69
74881;BME280;63427;49.654;6.596;2023-12-14T08:52:25;99651.05;;;11.11;44.18
74881;BME280;63427;49.654;6.596;2023-12-14T08:54:50;99653.75;;;11.04;44.42
74881;BME280;63427;49.654;6.596;2023-12-14T08:57:15;99656.03;;;11.00;44.45
74881;BME280;63427;49.654;6.596;2023-12-14T08:59:40;99658.37;;;11.23;44.57
74881;BME280;63427;49.654;6.596;2023-12-14T09:02:05;99668.16;;;11.00;44.33
74881;BME280;63427;49.654;6.596;2023-12-14T09:04:31;99680.61;;;10.93;44.90
74881;BME280;63427;49.654;6.596;2023-12-14T09:06:56;99686.25;;;10.80;45.00
74881;BME280;63427;49.654;6.596;2023-12-14T09:11:47;99696.28;;;10.81;45.13
74881;BME280;63427;49.654;6.596;2023-12-14T09:14:13;99697.33;;;11.12;44.68
74881;BME280;63427;49.654;6.596;2023-12-14T09:16:38;99703.83;;;11.23;44.59
74881;BME280;63427;49.654;6.596;2023-12-14T09:19:04;99715.84;;;11.09;44.36
74881;BME280;63427;49.654;6.596;2023-12-14T09:21:35;99717.89;;;11.07;44.23
74881;BME280;63427;49.654;6.596;2023-12-14T09:23:55;99719.93;;;11.06;44.05
74881;BME280;63427;49.654;6.596;2023-12-14T09:26:20;99731.18;;;10.97;44.39
74881;BME280;63427;49.654;6.596;2023-12-14T09:28:46;99731.24;;;11.10;44.22
74881;BME280;63427;49.654;6.596;2023-12-14T09:31:12;99730.98;;;11.50;44.22
74881;BME280;63427;49.654;6.596;2023-12-14T09:33:37;99740.20;;;11.13;44.07
74881;BME280;63427;49.654;6.596;2023-12-14T09:36:03;99742.23;;;11.27;44.26
74881;BME280;63427;49.654;6.596;2023-12-14T09:38:28;99746.50;;;11.34;44.24
74881;BME280;63427;49.654;6.596;2023-12-14T09:40:54;99756.12;;;11.65;43.93
74881;BME280;63427;49.654;6.596;2023-12-14T09:43:20;99758.15;;;11.23;44.07
74881;BME280;63427;49.654;6.596;2023-12-14T09:45:46;99760.76;;;11.34;44.27
74881;BME280;63427;49.654;6.596;2023-12-14T09:48:31;99762.75;;;11.58;44.54
74881;BME280;63427;49.654;6.596;2023-12-14T09:50:36;99769.31;;;11.92;44.00
74881;BME280;63427;49.654;6.596;2023-12-14T09:53:01;99775.63;;;12.21;43.68
74881;BME280;63427;49.654;6.596;2023-12-14T09:55:26;99777.20;;;12.19;43.91
74881;BME280;63427;49.654;6.596;2023-12-14T09:57:51;99779.41;;;11.74;44.16
74881;BME280;63427;49.654;6.596;2023-12-14T10:02:43;99784.91;;;11.92;43.67
74881;BME280;63427;49.654;6.596;2023-12-14T10:05:10;99789.87;;;11.90;43.46
74881;BME280;63427;49.654;6.596;2023-12-14T10:07:33;99791.64;;;11.86;43.33
74881;BME280;63427;49.654;6.596;2023-12-14T10:12:24;99796.68;;;12.12;43.61
74881;BME280;63427;49.654;6.596;2023-12-14T10:17:25;99800.61;;;12.23;43.07
74881;BME280;63427;49.654;6.596;2023-12-14T10:19:42;99806.53;;;12.47;43.02
74881;BME280;63427;49.654;6.596;2023-12-14T10:24:33;99803.48;;;12.30;42.41
74881;BME280;63427;49.654;6.596;2023-12-14T10:26:57;99804.27;;;12.35;41.77
74881;BME280;63427;49.654;6.596;2023-12-14T10:29:23;99807.64;;;12.72;41.47
74881;BME280;63427;49.654;6.596;2023-12-14T10:31:48;99811.50;;;12.53;41.96
74881;BME280;63427;49.654;6.596;2023-12-14T10:34:13;99814.20;;;13.01;41.20
74881;BME280;63427;49.654;6.596;2023-12-14T10:36:39;99813.77;;;12.41;41.83
74881;BME280;63427;49.654;6.596;2023-12-14T10:41:31;99820.18;;;13.04;41.44
74881;BME280;63427;49.654;6.596;2023-12-14T10:43:56;99823.36;;;12.85;41.14
74881;BME280;63427;49.654;6.596;2023-12-14T10:46:20;99819.19;;;13.02;40.93
74881;BME280;63427;49.654;6.596;2023-12-14T10:48:47;99819.61;;;13.37;40.43
74881;BME280;63427;49.654;6.596;2023-12-14T10:51:11;99828.13;;;13.14;40.97
74881;BME280;63427;49.654;6.596;2023-12-14T10:53:37;99831.70;;;12.96;41.05
74881;BME280;63427;49.654;6.596;2023-12-14T10:56:05;99836.40;;;13.28;40.71
74881;BME280;63427;49.654;6.596;2023-12-14T11:01:00;99841.20;;;13.49;40.00
74881;BME280;63427;49.654;6.596;2023-12-14T11:08:10;99842.10;;;13.68;40.43
74881;BME280;63427;49.654;6.596;2023-12-14T11:10:38;99845.66;;;13.89;39.51
74881;BME280;63427;49.654;6.596;2023-12-14T11:13:02;99848.84;;;13.83;39.75
74881;BME280;63427;49.654;6.596;2023-12-14T11:15:28;99853.27;;;13.72;40.15
74881;BME280;63427;49.654;6.596;2023-12-14T11:22:43;99866.85;;;13.60;38.49
74881;BME280;63427;49.654;6.596;2023-12-14T11:25:08;99873.47;;;13.46;38.98
74881;BME280;63427;49.654;6.596;2023-12-14T11:29:59;99882.89;;;12.85;37.72
74881;BME280;63427;49.654;6.596;2023-12-14T11:32:26;99881.78;;;13.05;37.18
74881;BME280;63427;49.654;6.596;2023-12-14T11:34:50;99880.05;;;12.78;37.87
74881;BME280;63427;49.654;6.596;2023-12-14T11:37:15;99885.57;;;13.41;37.57
74881;BME280;63427;49.654;6.596;2023-12-14T11:39:40;99892.57;;;12.68;38.40
74881;BME280;63427;49.654;6.596;2023-12-14T11:42:06;99893.71;;;12.75;38.50
74881;BME280;63427;49.654;6.596;2023-12-14T11:44:32;99899.12;;;12.81;38.69
74881;BME280;63427;49.654;6.596;2023-12-14T11:46:57;99904.61;;;12.88;37.76
74881;BME280;63427;49.654;6.596;2023-12-14T11:49:24;99901.00;;;12.42;38.74
74881;BME280;63427;49.654;6.596;2023-12-14T11:51:47;99908.27;;;12.23;39.13
74881;BME280;63427;49.654;6.596;2023-12-14T11:54:13;99916.82;;;11.95;39.04
74881;BME280;63427;49.654;6.596;2023-12-14T11:56:38;99924.39;;;12.03;38.62
74881;BME280;63427;49.654;6.596;2023-12-14T11:59:04;99927.81;;;11.23;39.91
74881;BME280;63427;49.654;6.596;2023-12-14T12:01:30;99939.61;;;10.99;39.89
74881;BME280;63427;49.654;6.596;2023-12-14T12:03:55;99940.94;;;10.90;40.53
74881;BME280;63427;49.654;6.596;2023-12-14T12:06:22;99943.13;;;11.32;40.27
74881;BME280;63427;49.654;6.596;2023-12-14T12:08:46;99944.56;;;11.05;40.54
74881;BME280;63427;49.654;6.596;2023-12-14T12:11:16;99943.15;;;11.64;40.04
74881;BME280;63427;49.654;6.596;2023-12-14T15:22:49;100238.39;;;10.22;34.70
74881;BME280;63427;49.654;6.596;2023-12-14T15:25:14;100241.25;;;10.32;35.19
74881;BME280;63427;49.654;6.596;2023-12-14T15:27:40;100247.83;;;9.97;35.24
74881;BME280;63427;49.654;6.596;2023-12-14T15:30:09;100257.08;;;9.90;35.79
74881;BME280;63427;49.654;6.596;2023-12-14T15:32:32;100257.55;;;10.24;35.86
74881;BME280;63427;49.654;6.596;2023-12-14T15:34:57;100266.23;;;10.18;35.26
74881;BME280;63427;49.654;6.596;2023-12-14T15:37:22;100268.88;;;10.01;35.90
74881;BME280;63427;49.654;6.596;2023-12-14T15:39:48;100267.79;;;10.12;35.90
74881;BME280;63427;49.654;6.596;2023-12-14T15:56:47;100288.85;;;10.25;36.62
74881;BME280;63427;49.654;6.596;2023-12-14T15:59:12;100291.82;;;10.23;37.52
74881;BME280;63427;49.654;6.596;2023-12-14T16:01:38;100295.99;;;9.92;37.29
74881;BME280;63427;49.654;6.596;2023-12-14T16:04:03;100298.26;;;9.92;36.49
74881;BME280;63427;49.654;6.596;2023-12-14T16:06:29;100305.73;;;10.13;36.69
74881;BME280;63427;49.654;6.596;2023-12-14T16:08:54;100310.98;;;10.33;36.58
74881;BME280;63427;49.654;6.596;2023-12-14T17:04:40;100409.63;;;10.33;35.65
74881;BME280;63427;49.654;6.596;2023-12-14T17:07:06;100413.64;;;10.07;35.78
74881;BME280;63427;49.654;6.596;2023-12-14T17:09:32;100413.91;;;9.92;36.75
74881;BME280;63427;49.654;6.596;2023-12-14T19:20:24;100618.18;;;9.71;39.47
74881;BME280;63427;49.654;6.596;2023-12-14T19:22:49;100622.02;;;9.88;39.68
74881;BME280;63427;49.654;6.596;2023-12-14T19:25:14;100628.66;;;9.72;39.91
74881;BME280;63427;49.654;6.596;2023-12-14T19:27:40;100632.00;;;9.80;39.87
74881;BME280;63427;49.654;6.596;2023-12-14T19:30:19;100636.40;;;9.69;39.93
74881;BME280;63427;49.654;6.596;2023-12-14T19:32:36;100643.40;;;9.64;39.97
74881;BME280;63427;49.654;6.596;2023-12-14T19:34:56;100646.91;;;9.89;39.81
74881;BME280;63427;49.654;6.596;2023-12-14T19:37:22;100649.65;;;9.58;39.73
74881;BME280;63427;49.654;6.596;2023-12-14T19:39:48;100653.45;;;9.44;40.14
74881;BME280;63427;49.654;6.596;2023-12-14T19:42:14;100658.59;;;9.55;39.98
74881;BME280;63427;49.654;6.596;2023-12-14T19:44:38;100659.87;;;9.53;39.99
74881;BME280;63427;49.654;6.596;2023-12-14T19:47:17;100661.28;;;9.53;40.20
74881;BME280;63427;49.654;6.596;2023-12-14T19:49:30;100662.85;;;9.34;40.35
74881;BME280;63427;49.654;6.596;2023-12-14T19:51:56;100665.33;;;9.46;40.18
74881;BME280;63427;49.654;6.596;2023-12-14T19:54:21;100670.84;;;9.35;40.31
74881;BME280;63427;49.654;6.596;2023-12-14T19:56:46;100673.61;;;9.38;40.20
74881;BME280;63427;49.654;6.596;2023-12-14T19:59:12;100674.57;;;9.42;40.09
74881;BME280;63427;49.654;6.596;2023-12-14T20:01:37;100676.32;;;9.87;40.12
74881;BME280;63427;49.654;6.596;2023-12-14T20:04:03;100681.52;;;9.39;40.18
74881;BME280;63427;49.654;6.596;2023-12-14T20:06:29;100684.45;;;9.28;40.34
74881;BME280;63427;49.654;6.596;2023-12-14T20:08:54;100686.79;;;9.29;40.43
74881;BME280;63427;49.654;6.596;2023-12-14T20:11:19;100687.38;;;9.68;39.51
74881;BME280;63427;49.654;6.596;2023-12-14T20:13:45;100687.98;;;9.31;40.25
74881;BME280;63427;49.654;6.596;2023-12-14T20:16:10;100689.36;;;9.78;40.18
74881;BME280;63427;49.654;6.596;2023-12-14T20:18:35;100688.70;;;9.22;40.31
74881;BME280;63427;49.654;6.596;2023-12-14T20:21:00;100688.76;;;9.26;40.43
74881;BME280;63427;49.654;6.596;2023-12-14T21:21:39;100743.27;;;9.05;40.81
74881;BME280;63427;49.654;6.596;2023-12-14T21:24:05;100746.02;;;9.57;40.78
74881;BME280;63427;49.654;6.596;2023-12-14T21:26:30;100746.99;;;8.93;41.08
74881;BME280;63427;49.654;6.596;2023-12-14T21:28:55;100750.04;;;9.33;41.09
74881;BME280;63427;49.654;6.596;2023-12-14T21:33:46;100754.07;;;9.18;40.95
74881;BME280;63427;49.654;6.596;2023-12-14T21:36:13;100755.66;;;9.43;40.89
74881;BME280;63427;49.654;6.596;2023-12-14T21:38:37;100756.31;;;9.10;41.18
74881;BME280;63427;49.654;6.596;2023-12-14T21:41:03;100752.31;;;9.36;41.28
74881;BME280;63427;49.654;6.596;2023-12-14T21:43:29;100754.34;;;9.22;41.47
74881;BME280;63427;49.654;6.596;2023-12-14T21:45:54;100753.74;;;8.90;41.81
74881;BME280;63427;49.654;6.596;2023-12-14T21:48:20;100757.15;;;8.72;41.81
74881;BME280;63427;49.654;6.596;2023-12-14T21:50:45;100758.89;;;9.23;41.90